sensor_id;sensor_type;location;lat;lon;timestamp;P1;P2;P0
70249;PMS5003;57644;48.416;-123.374;2022-08-21T00:01:39;1;1;
70249;PMS5003;57644;48.416;-123.374;2022-08-21T00:04:10;4;4;
70249;PMS5003;57644;48.416;-123.374;2022-08-21T00:06:40;5;2;
70249;PMS5003;57644;48.416;-123.374;2022-08-21T00:09:10;3;3;
70249;PMS5003;57644;48.416;-123.374;2022-08-21T00:11:40;7;6;
70249;PMS5003;57644;48.416;-123.374;2022-08-21T00:14:12;3;3;
70249;PMS5003;57644;48.416;-123.374;2022-08-21T00:16:41;1;1;
70249;PMS5003;57644;48.416;-123.374;2022-08-21T00:19:11;0;0;
70249;PMS5003;57644;48.416;-123.374;2022-08-21T00:21:42;2;2;
70249;PMS5003;57644;48.416;-123.374;2022-08-21T00:24:12;5;4;
70249;PMS5003;57644;48.416;-123.374;2022-08-21T00:26:42;2;2;
70249;PMS5003;57644;48.416;-123.374;2022-08-21T00:29:12;2;2;
70249;PMS5003;57644;48.416;-123.374;2022-08-21T00:31:43;3;2;
70249;PMS5003;57644;48.416;-123.374;2022-08-21T00:34:14;4;3;
70249;PMS5003;57644;48.416;-123.374;2022-08-21T00:36:43;3;2;
70249;PMS5003;57644;48.416;-123.374;2022-08-21T00:39:13;3;3;
70249;PMS5003;57644;48.416;-123.374;2022-08-21T00:41:44;4;3;
70249;PMS5003;57644;48.416;-123.374;2022-08-21T00:46:44;3;3;
70249;PMS5003;57644;48.416;-123.374;2022-08-21T00:49:15;3;3;
70249;PMS5003;57644;48.416;-123.374;2022-08-21T00:51:46;3;2;
70249;PMS5003;57644;48.416;-123.374;2022-08-21T00:54:16;2;2;
70249;PMS5003;57644;48.416;-123.374;2022-08-21T00:56:47;1;1;
70249;PMS5003;57644;48.416;-123.374;2022-08-21T00:59:17;1;1;
70249;PMS5003;57644;48.416;-123.374;2022-08-21T01:01:47;1;1;
70249;PMS5003;57644;48.416;-123.374;2022-08-21T01:04:17;0;0;
70249;PMS5003;57644;48.416;-123.374;2022-08-21T01:06:47;3;2;
70249;PMS5003;57644;48.416;-123.374;2022-08-21T01:09:18;3;2;
70249;PMS5003;57644;48.416;-123.374;2022-08-21T01:11:49;2;1;
70249;PMS5003;57644;48.416;-123.374;2022-08-21T01:14:19;2;1;
70249;PMS5003;57644;48.416;-123.374;2022-08-21T01:16:50;1;1;
70249;PMS5003;57644;48.416;-123.374;2022-08-21T01:19:20;0;0;
70249;PMS5003;57644;48.416;-123.374;2022-08-21T01:21:50;1;1;
70249;PMS5003;57644;48.416;-123.374;2022-08-21T01:24:25;3;3;
70249;PMS5003;57644;48.416;-123.374;2022-08-21T01:26:51;2;1;
70249;PMS5003;57644;48.416;-123.374;2022-08-21T01:29:25;2;2;
70249;PMS5003;57644;48.416;-123.374;2022-08-21T01:31:52;3;3;
70249;PMS5003;57644;48.416;-123.374;2022-08-21T01:34:23;8;8;
70249;PMS5003;57644;48.416;-123.374;2022-08-21T01:36:54;3;2;
70249;PMS5003;57644;48.416;-123.374;2022-08-21T01:39:24;7;6;
70249;PMS5003;57644;48.416;-123.374;2022-08-21T01:41:55;5;5;
70249;PMS5003;57644;48.416;-123.374;2022-08-21T01:44:25;5;5;
70249;PMS5003;57644;48.416;-123.374;2022-08-21T01:46:57;13;12;
70249;PMS5003;57644;48.416;-123.374;2022-08-21T01:49:27;12;12;
70249;PMS5003;57644;48.416;-123.374;2022-08-21T01:51:57;14;13;
70249;PMS5003;57644;48.416;-123.374;2022-08-21T01:54:27;7;5;
70249;PMS5003;57644;48.416;-123.374;2022-08-21T01:56:58;6;5;
70249;PMS5003;57644;48.416;-123.374;2022-08-21T01:59:28;5;4;
70249;PMS5003;57644;48.416;-123.374;2022-08-21T02:01:58;6;6;
70249;PMS5003;57644;48.416;-123.374;2022-08-21T02:04:29;7;6;
70249;PMS5003;57644;48.416;-123.374;2022-08-21T02:06:59;11;10;
70249;PMS5003;57644;48.416;-123.374;2022-08-21T02:09:30;3;3;
70249;PMS5003;57644;48.416;-123.374;2022-08-21T02:12:00;4;4;
70249;PMS5003;57644;48.416;-123.374;2022-08-21T02:14:32;4;4;
70249;PMS5003;57644;48.416;-123.374;2022-08-21T02:17:01;4;4;
70249;PMS5003;57644;48.416;-123.374;2022-08-21T02:19:31;3;3;
70249;PMS5003;57644;48.416;-123.374;2022-08-21T02:22:01;3;3;
70249;PMS5003;57644;48.416;-123.374;2022-08-21T02:24:36;5;5;
70249;PMS5003;57644;48.416;-123.374;2022-08-21T02:27:01;4;3;
70249;PMS5003;57644;48.416;-123.374;2022-08-21T02:29:32;3;3;
70249;PMS5003;57644;48.416;-123.374;2022-08-21T02:32:02;4;4;
70249;PMS5003;57644;48.416;-123.374;2022-08-21T02:34:32;4;4;
70249;PMS5003;57644;48.416;-123.374;2022-08-21T02:37:03;11;10;
70249;PMS5003;57644;48.416;-123.374;2022-08-21T02:39:34;15;15;
70249;PMS5003;57644;48.416;-123.374;2022-08-21T02:42:04;14;14;
70249;PMS5003;57644;48.416;-123.374;2022-08-21T02:44:34;13;13;
70249;PMS5003;57644;48.416;-123.374;2022-08-21T02:47:05;11;10;
70249;PMS5003;57644;48.416;-123.374;2022-08-21T02:49:35;10;9;
70249;PMS5003;57644;48.416;-123.374;2022-08-21T02:52:05;6;5;
70249;PMS5003;57644;48.416;-123.374;2022-08-21T02:54:39;7;6;
70249;PMS5003;57644;48.416;-123.374;2022-08-21T02:57:05;11;10;
70249;PMS5003;57644;48.416;-123.374;2022-08-21T02:59:36;16;12;
70249;PMS5003;57644;48.416;-123.374;2022-08-21T03:02:07;6;6;
70249;PMS5003;57644;48.416;-123.374;2022-08-21T03:04:37;14;11;
70249;PMS5003;57644;48.416;-123.374;2022-08-21T03:07:08;8;6;
70249;PMS5003;57644;48.416;-123.374;2022-08-21T03:09:38;5;5;
70249;PMS5003;57644;48.416;-123.374;2022-08-21T03:12:08;3;3;
70249;PMS5003;57644;48.416;-123.374;2022-08-21T03:14:38;8;7;
70249;PMS5003;57644;48.416;-123.374;2022-08-21T03:17:09;5;5;
70249;PMS5003;57644;48.416;-123.374;2022-08-21T03:19:40;5;5;
70249;PMS5003;57644;48.416;-123.374;2022-08-21T03:22:10;9;7;
70249;PMS5003;57644;48.416;-123.374;2022-08-21T03:24:42;15;14;
70249;PMS5003;57644;48.416;-123.374;2022-08-21T03:27:11;14;14;
70249;PMS5003;57644;48.416;-123.374;2022-08-21T03:32:12;8;8;
70249;PMS5003;57644;48.416;-123.374;2022-08-21T03:34:42;8;8;
70249;PMS5003;57644;48.416;-123.374;2022-08-21T03:37:13;10;9;
70249;PMS5003;57644;48.416;-123.374;2022-08-21T03:39:44;11;11;
70249;PMS5003;57644;48.416;-123.374;2022-08-21T03:42:12;9;9;
70249;PMS5003;57644;48.416;-123.374;2022-08-21T03:44:43;11;9;
70249;PMS5003;57644;48.416;-123.374;2022-08-21T03:47:13;9;7;
70249;PMS5003;57644;48.416;-123.374;2022-08-21T03:49:44;7;6;
70249;PMS5003;57644;48.416;-123.374;2022-08-21T03:52:14;10;9;
70249;PMS5003;57644;48.416;-123.374;2022-08-21T03:54:45;13;11;
70249;PMS5003;57644;48.416;-123.374;2022-08-21T03:57:15;7;6;
70249;PMS5003;57644;48.416;-123.374;2022-08-21T03:59:45;9;8;
70249;PMS5003;57644;48.416;-123.374;2022-08-21T04:02:16;8;7;
70249;PMS5003;57644;48.416;-123.374;2022-08-21T04:04:46;5;4;
70249;PMS5003;57644;48.416;-123.374;2022-08-21T04:07:17;3;3;
70249;PMS5003;57644;48.416;-123.374;2022-08-21T04:09:47;4;3;
70249;PMS5003;57644;48.416;-123.374;2022-08-21T04:12:17;5;5;
70249;PMS5003;57644;48.416;-123.374;2022-08-21T04:14:47;5;5;
70249;PMS5003;57644;48.416;-123.374;2022-08-21T04:17:18;6;5;
70249;PMS5003;57644;48.416;-123.374;2022-08-21T04:19:48;6;4;
70249;PMS5003;57644;48.416;-123.374;2022-08-21T04:22:19;4;4;
70249;PMS5003;57644;48.416;-123.374;2022-08-21T04:24:49;6;5;
70249;PMS5003;57644;48.416;-123.374;2022-08-21T04:27:19;4;4;
70249;PMS5003;57644;48.416;-123.374;2022-08-21T04:29:50;3;3;
70249;PMS5003;57644;48.416;-123.374;2022-08-21T04:32:21;5;4;
70249;PMS5003;57644;48.416;-123.374;2022-08-21T04:34:50;8;6;
70249;PMS5003;57644;48.416;-123.374;2022-08-21T04:37:20;7;5;
70249;PMS5003;57644;48.416;-123.374;2022-08-21T04:39:51;6;5;
70249;PMS5003;57644;48.416;-123.374;2022-08-21T04:42:21;5;5;
70249;PMS5003;57644;48.416;-123.374;2022-08-21T04:47:22;5;5;
70249;PMS5003;57644;48.416;-123.374;2022-08-21T04:49:54;4;3;
70249;PMS5003;57644;48.416;-123.374;2022-08-21T04:52:23;1;1;
70249;PMS5003;57644;48.416;-123.374;2022-08-21T04:54:53;6;6;
70249;PMS5003;57644;48.416;-123.374;2022-08-21T04:57:24;5;5;
70249;PMS5003;57644;48.416;-123.374;2022-08-21T04:59:54;5;4;
70249;PMS5003;57644;48.416;-123.374;2022-08-21T05:02:24;6;5;
70249;PMS5003;57644;48.416;-123.374;2022-08-21T05:04:54;3;3;
70249;PMS5003;57644;48.416;-123.374;2022-08-21T05:07:26;4;4;
70249;PMS5003;57644;48.416;-123.374;2022-08-21T05:09:55;3;3;
70249;PMS5003;57644;48.416;-123.374;2022-08-21T05:12:25;3;3;
70249;PMS5003;57644;48.416;-123.374;2022-08-21T05:14:56;4;3;
70249;PMS5003;57644;48.416;-123.374;2022-08-21T05:17:26;3;3;
70249;PMS5003;57644;48.416;-123.374;2022-08-21T05:19:56;4;3;
70249;PMS5003;57644;48.416;-123.374;2022-08-21T05:22:27;4;3;
70249;PMS5003;57644;48.416;-123.374;2022-08-21T05:24:57;2;2;
70249;PMS5003;57644;48.416;-123.374;2022-08-21T05:27:27;3;3;
70249;PMS5003;57644;48.416;-123.374;2022-08-21T05:29:58;3;3;
70249;PMS5003;57644;48.416;-123.374;2022-08-21T05:32:28;4;3;
70249;PMS5003;57644;48.416;-123.374;2022-08-21T05:34:58;2;2;
70249;PMS5003;57644;48.416;-123.374;2022-08-21T05:37:29;3;3;
70249;PMS5003;57644;48.416;-123.374;2022-08-21T05:39:59;2;2;
70249;PMS5003;57644;48.416;-123.374;2022-08-21T05:42:29;3;3;
70249;PMS5003;57644;48.416;-123.374;2022-08-21T05:44:59;2;2;
70249;PMS5003;57644;48.416;-123.374;2022-08-21T05:47:30;2;2;
70249;PMS5003;57644;48.416;-123.374;2022-08-21T05:50:00;2;2;
70249;PMS5003;57644;48.416;-123.374;2022-08-21T05:52:30;3;3;
70249;PMS5003;57644;48.416;-123.374;2022-08-21T05:55:01;2;2;
70249;PMS5003;57644;48.416;-123.374;2022-08-21T05:57:31;5;4;
70249;PMS5003;57644;48.416;-123.374;2022-08-21T06:00:02;2;2;
70249;PMS5003;57644;48.416;-123.374;2022-08-21T06:02:31;2;2;
70249;PMS5003;57644;48.416;-123.374;2022-08-21T06:05:02;3;3;
70249;PMS5003;57644;48.416;-123.374;2022-08-21T06:07:32;2;2;
70249;PMS5003;57644;48.416;-123.374;2022-08-21T06:10:03;3;2;
70249;PMS5003;57644;48.416;-123.374;2022-08-21T06:12:33;2;2;
70249;PMS5003;57644;48.416;-123.374;2022-08-21T06:15:03;2;2;
70249;PMS5003;57644;48.416;-123.374;2022-08-21T06:17:33;4;4;
70249;PMS5003;57644;48.416;-123.374;2022-08-21T06:20:04;2;2;
70249;PMS5003;57644;48.416;-123.374;2022-08-21T06:22:34;2;2;
70249;PMS5003;57644;48.416;-123.374;2022-08-21T06:25:05;2;2;
70249;PMS5003;57644;48.416;-123.374;2022-08-21T06:27:35;1;1;
70249;PMS5003;57644;48.416;-123.374;2022-08-21T06:30:05;3;3;
70249;PMS5003;57644;48.416;-123.374;2022-08-21T06:32:36;3;2;
70249;PMS5003;57644;48.416;-123.374;2022-08-21T06:35:06;2;2;
70249;PMS5003;57644;48.416;-123.374;2022-08-21T06:37:37;3;3;
70249;PMS5003;57644;48.416;-123.374;2022-08-21T06:40:07;3;2;
70249;PMS5003;57644;48.416;-123.374;2022-08-21T06:42:37;1;1;
70249;PMS5003;57644;48.416;-123.374;2022-08-21T06:45:08;3;3;
70249;PMS5003;57644;48.416;-123.374;2022-08-21T06:47:38;3;3;
70249;PMS5003;57644;48.416;-123.374;2022-08-21T06:50:09;3;3;
70249;PMS5003;57644;48.416;-123.374;2022-08-21T06:52:39;3;3;
70249;PMS5003;57644;48.416;-123.374;2022-08-21T06:55:09;3;3;
70249;PMS5003;57644;48.416;-123.374;2022-08-21T06:57:39;2;2;
70249;PMS5003;57644;48.416;-123.374;2022-08-21T07:00:10;2;2;
70249;PMS5003;57644;48.416;-123.374;2022-08-21T07:02:40;2;2;
70249;PMS5003;57644;48.416;-123.374;2022-08-21T07:05:10;3;3;
70249;PMS5003;57644;48.416;-123.374;2022-08-21T07:07:42;2;2;
70249;PMS5003;57644;48.416;-123.374;2022-08-21T07:10:11;2;2;
70249;PMS5003;57644;48.416;-123.374;2022-08-21T07:12:42;2;2;
70249;PMS5003;57644;48.416;-123.374;2022-08-21T07:15:12;2;2;
70249;PMS5003;57644;48.416;-123.374;2022-08-21T07:17:42;4;3;
70249;PMS5003;57644;48.416;-123.374;2022-08-21T07:20:13;3;3;
70249;PMS5003;57644;48.416;-123.374;2022-08-21T07:22:43;2;2;
70249;PMS5003;57644;48.416;-123.374;2022-08-21T07:25:13;2;2;
70249;PMS5003;57644;48.416;-123.374;2022-08-21T07:27:44;4;3;
70249;PMS5003;57644;48.416;-123.374;2022-08-21T07:30:14;2;2;
70249;PMS5003;57644;48.416;-123.374;2022-08-21T07:32:44;4;4;
70249;PMS5003;57644;48.416;-123.374;2022-08-21T07:35:15;4;3;
70249;PMS5003;57644;48.416;-123.374;2022-08-21T07:37:46;5;5;
70249;PMS5003;57644;48.416;-123.374;2022-08-21T07:40:16;3;3;
70249;PMS5003;57644;48.416;-123.374;2022-08-21T07:42:47;4;4;
70249;PMS5003;57644;48.416;-123.374;2022-08-21T07:45:16;4;4;
70249;PMS5003;57644;48.416;-123.374;2022-08-21T07:47:47;4;3;
70249;PMS5003;57644;48.416;-123.374;2022-08-21T07:50:18;4;3;
70249;PMS5003;57644;48.416;-123.374;2022-08-21T07:52:47;3;3;
70249;PMS5003;57644;48.416;-123.374;2022-08-21T07:55:18;3;3;
70249;PMS5003;57644;48.416;-123.374;2022-08-21T07:57:48;3;3;
70249;PMS5003;57644;48.416;-123.374;2022-08-21T08:00:19;3;3;
70249;PMS5003;57644;48.416;-123.374;2022-08-21T08:02:49;2;2;
70249;PMS5003;57644;48.416;-123.374;2022-08-21T08:05:20;3;2;
70249;PMS5003;57644;48.416;-123.374;2022-08-21T08:07:49;3;3;
70249;PMS5003;57644;48.416;-123.374;2022-08-21T08:10:20;2;2;
70249;PMS5003;57644;48.416;-123.374;2022-08-21T08:12:50;2;2;
70249;PMS5003;57644;48.416;-123.374;2022-08-21T08:15:22;3;3;
70249;PMS5003;57644;48.416;-123.374;2022-08-21T08:17:51;1;1;
70249;PMS5003;57644;48.416;-123.374;2022-08-21T08:20:22;2;2;
70249;PMS5003;57644;48.416;-123.374;2022-08-21T08:22:51;2;2;
70249;PMS5003;57644;48.416;-123.374;2022-08-21T08:25:22;1;1;
70249;PMS5003;57644;48.416;-123.374;2022-08-21T08:27:52;3;2;
70249;PMS5003;57644;48.416;-123.374;2022-08-21T08:30:22;1;1;
70249;PMS5003;57644;48.416;-123.374;2022-08-21T08:32:52;2;2;
70249;PMS5003;57644;48.416;-123.374;2022-08-21T08:35:23;1;1;
70249;PMS5003;57644;48.416;-123.374;2022-08-21T08:37:53;1;1;
70249;PMS5003;57644;48.416;-123.374;2022-08-21T08:40:25;2;2;
70249;PMS5003;57644;48.416;-123.374;2022-08-21T08:42:54;1;1;
70249;PMS5003;57644;48.416;-123.374;2022-08-21T08:45:24;0;0;
70249;PMS5003;57644;48.416;-123.374;2022-08-21T08:47:56;0;0;
70249;PMS5003;57644;48.416;-123.374;2022-08-21T08:50:26;1;1;
70249;PMS5003;57644;48.416;-123.374;2022-08-21T08:52:57;1;1;
70249;PMS5003;57644;48.416;-123.374;2022-08-21T08:55:28;1;1;
70249;PMS5003;57644;48.416;-123.374;2022-08-21T08:57:56;2;2;
70249;PMS5003;57644;48.416;-123.374;2022-08-21T09:00:26;1;1;
70249;PMS5003;57644;48.416;-123.374;2022-08-21T09:02:57;2;2;
70249;PMS5003;57644;48.416;-123.374;2022-08-21T09:05:27;3;3;
70249;PMS5003;57644;48.416;-123.374;2022-08-21T09:08:00;1;1;
70249;PMS5003;57644;48.416;-123.374;2022-08-21T09:10:30;0;0;
70249;PMS5003;57644;48.416;-123.374;2022-08-21T09:13:00;1;1;
70249;PMS5003;57644;48.416;-123.374;2022-08-21T09:15:29;2;2;
70249;PMS5003;57644;48.416;-123.374;2022-08-21T09:18:06;2;2;
70249;PMS5003;57644;48.416;-123.374;2022-08-21T09:20:29;2;2;
70249;PMS5003;57644;48.416;-123.374;2022-08-21T09:23:02;2;2;
70249;PMS5003;57644;48.416;-123.374;2022-08-21T09:25:30;1;1;
70249;PMS5003;57644;48.416;-123.374;2022-08-21T09:28:00;1;1;
70249;PMS5003;57644;48.416;-123.374;2022-08-21T09:30:31;1;1;
70249;PMS5003;57644;48.416;-123.374;2022-08-21T09:33:00;2;2;
70249;PMS5003;57644;48.416;-123.374;2022-08-21T09:35:31;0;0;
70249;PMS5003;57644;48.416;-123.374;2022-08-21T09:38:02;1;1;
70249;PMS5003;57644;48.416;-123.374;2022-08-21T09:40:33;1;1;
70249;PMS5003;57644;48.416;-123.374;2022-08-21T09:43:03;1;1;
70249;PMS5003;57644;48.416;-123.374;2022-08-21T09:45:37;2;2;
70249;PMS5003;57644;48.416;-123.374;2022-08-21T09:50:33;1;1;
70249;PMS5003;57644;48.416;-123.374;2022-08-21T09:55:34;1;0;
70249;PMS5003;57644;48.416;-123.374;2022-08-21T09:58:03;1;1;
70249;PMS5003;57644;48.416;-123.374;2022-08-21T10:00:34;1;1;
70249;PMS5003;57644;48.416;-123.374;2022-08-21T10:05:34;1;1;
70249;PMS5003;57644;48.416;-123.374;2022-08-21T10:08:05;1;1;
70249;PMS5003;57644;48.416;-123.374;2022-08-21T10:10:36;2;2;
70249;PMS5003;57644;48.416;-123.374;2022-08-21T10:13:07;2;1;
70249;PMS5003;57644;48.416;-123.374;2022-08-21T10:15:38;1;1;
70249;PMS5003;57644;48.416;-123.374;2022-08-21T10:18:07;1;1;
70249;PMS5003;57644;48.416;-123.374;2022-08-21T10:20:37;1;1;
70249;PMS5003;57644;48.416;-123.374;2022-08-21T10:23:10;0;0;
70249;PMS5003;57644;48.416;-123.374;2022-08-21T10:25:39;1;1;
70249;PMS5003;57644;48.416;-123.374;2022-08-21T10:28:10;1;1;
70249;PMS5003;57644;48.416;-123.374;2022-08-21T10:30:41;1;1;
70249;PMS5003;57644;48.416;-123.374;2022-08-21T10:33:12;2;1;
70249;PMS5003;57644;48.416;-123.374;2022-08-21T10:35:40;1;1;
70249;PMS5003;57644;48.416;-123.374;2022-08-21T10:38:15;1;1;
70249;PMS5003;57644;48.416;-123.374;2022-08-21T10:40:40;0;0;
70249;PMS5003;57644;48.416;-123.374;2022-08-21T10:43:14;1;1;
70249;PMS5003;57644;48.416;-123.374;2022-08-21T10:45:42;0;0;
70249;PMS5003;57644;48.416;-123.374;2022-08-21T10:48:12;1;1;
70249;PMS5003;57644;48.416;-123.374;2022-08-21T10:50:42;1;1;
70249;PMS5003;57644;48.416;-123.374;2022-08-21T10:53:15;2;2;
70249;PMS5003;57644;48.416;-123.374;2022-08-21T10:55:43;3;2;
70249;PMS5003;57644;48.416;-123.374;2022-08-21T10:58:12;2;2;
70249;PMS5003;57644;48.416;-123.374;2022-08-21T11:00:43;1;1;
70249;PMS5003;57644;48.416;-123.374;2022-08-21T11:03:13;3;3;
70249;PMS5003;57644;48.416;-123.374;2022-08-21T11:05:43;1;1;
70249;PMS5003;57644;48.416;-123.374;2022-08-21T11:08:14;1;1;
70249;PMS5003;57644;48.416;-123.374;2022-08-21T11:10:44;3;3;
70249;PMS5003;57644;48.416;-123.374;2022-08-21T11:13:15;2;2;
70249;PMS5003;57644;48.416;-123.374;2022-08-21T11:15:45;4;3;
70249;PMS5003;57644;48.416;-123.374;2022-08-21T11:18:17;2;2;
70249;PMS5003;57644;48.416;-123.374;2022-08-21T11:20:47;2;2;
70249;PMS5003;57644;48.416;-123.374;2022-08-21T11:23:17;1;1;
70249;PMS5003;57644;48.416;-123.374;2022-08-21T11:25:46;1;1;
70249;PMS5003;57644;48.416;-123.374;2022-08-21T11:28:16;0;0;
70249;PMS5003;57644;48.416;-123.374;2022-08-21T11:30:49;1;1;
70249;PMS5003;57644;48.416;-123.374;2022-08-21T11:33:22;1;1;
70249;PMS5003;57644;48.416;-123.374;2022-08-21T11:35:47;1;1;
70249;PMS5003;57644;48.416;-123.374;2022-08-21T11:38:24;1;1;
70249;PMS5003;57644;48.416;-123.374;2022-08-21T11:40:52;2;2;
70249;PMS5003;57644;48.416;-123.374;2022-08-21T11:43:20;3;1;
70249;PMS5003;57644;48.416;-123.374;2022-08-21T11:45:51;2;1;
70249;PMS5003;57644;48.416;-123.374;2022-08-21T11:48:25;1;1;
70249;PMS5003;57644;48.416;-123.374;2022-08-21T11:50:50;1;1;
70249;PMS5003;57644;48.416;-123.374;2022-08-21T11:53:23;1;1;
70249;PMS5003;57644;48.416;-123.374;2022-08-21T11:55:52;0;0;
70249;PMS5003;57644;48.416;-123.374;2022-08-21T11:58:22;1;1;
70249;PMS5003;57644;48.416;-123.374;2022-08-21T12:00:53;1;0;
70249;PMS5003;57644;48.416;-123.374;2022-08-21T12:03:24;1;0;
70249;PMS5003;57644;48.416;-123.374;2022-08-21T12:05:53;2;1;
70249;PMS5003;57644;48.416;-123.374;2022-08-21T12:08:27;1;1;
70249;PMS5003;57644;48.416;-123.374;2022-08-21T12:13:24;1;1;
70249;PMS5003;57644;48.416;-123.374;2022-08-21T12:18:29;0;0;
70249;PMS5003;57644;48.416;-123.374;2022-08-21T12:21:00;1;1;
70249;PMS5003;57644;48.416;-123.374;2022-08-21T12:23:26;1;1;
70249;PMS5003;57644;48.416;-123.374;2022-08-21T12:26:00;0;0;
70249;PMS5003;57644;48.416;-123.374;2022-08-21T12:28:26;0;0;
70249;PMS5003;57644;48.416;-123.374;2022-08-21T12:30:56;2;1;
70249;PMS5003;57644;48.416;-123.374;2022-08-21T12:33:27;1;1;
70249;PMS5003;57644;48.416;-123.374;2022-08-21T12:36:02;1;1;
70249;PMS5003;57644;48.416;-123.374;2022-08-21T12:38:28;2;2;
70249;PMS5003;57644;48.416;-123.374;2022-08-21T12:40:59;1;1;
70249;PMS5003;57644;48.416;-123.374;2022-08-21T12:43:30;1;1;
70249;PMS5003;57644;48.416;-123.374;2022-08-21T12:45:58;2;2;
70249;PMS5003;57644;48.416;-123.374;2022-08-21T12:48:29;0;0;
70249;PMS5003;57644;48.416;-123.374;2022-08-21T12:51:05;3;2;
70249;PMS5003;57644;48.416;-123.374;2022-08-21T12:53:32;2;2;
70249;PMS5003;57644;48.416;-123.374;2022-08-21T12:56:01;0;0;
70249;PMS5003;57644;48.416;-123.374;2022-08-21T12:58:30;1;1;
70249;PMS5003;57644;48.416;-123.374;2022-08-21T13:01:01;1;1;
70249;PMS5003;57644;48.416;-123.374;2022-08-21T13:03:31;1;1;
70249;PMS5003;57644;48.416;-123.374;2022-08-21T13:06:02;1;1;
70249;PMS5003;57644;48.416;-123.374;2022-08-21T13:08:31;1;1;
70249;PMS5003;57644;48.416;-123.374;2022-08-21T13:11:03;1;0;
70249;PMS5003;57644;48.416;-123.374;2022-08-21T13:13:32;2;1;
70249;PMS5003;57644;48.416;-123.374;2022-08-21T13:16:03;0;0;
70249;PMS5003;57644;48.416;-123.374;2022-08-21T13:18:34;1;1;
70249;PMS5003;57644;48.416;-123.374;2022-08-21T13:21:04;0;0;
70249;PMS5003;57644;48.416;-123.374;2022-08-21T13:23:34;2;1;
70249;PMS5003;57644;48.416;-123.374;2022-08-21T13:28:35;2;2;
70249;PMS5003;57644;48.416;-123.374;2022-08-21T13:31:06;1;1;
70249;PMS5003;57644;48.416;-123.374;2022-08-21T13:33:35;2;0;
70249;PMS5003;57644;48.416;-123.374;2022-08-21T13:36:08;1;1;
70249;PMS5003;57644;48.416;-123.374;2022-08-21T13:38:36;2;1;
70249;PMS5003;57644;48.416;-123.374;2022-08-21T13:41:08;3;2;
70249;PMS5003;57644;48.416;-123.374;2022-08-21T13:43:37;1;1;
70249;PMS5003;57644;48.416;-123.374;2022-08-21T13:46:08;0;0;
70249;PMS5003;57644;48.416;-123.374;2022-08-21T13:48:37;1;1;
70249;PMS5003;57644;48.416;-123.374;2022-08-21T13:51:07;3;3;
70249;PMS5003;57644;48.416;-123.374;2022-08-21T13:56:08;1;0;
70249;PMS5003;57644;48.416;-123.374;2022-08-21T13:58:41;2;2;
70249;PMS5003;57644;48.416;-123.374;2022-08-21T14:03:41;2;1;
70249;PMS5003;57644;48.416;-123.374;2022-08-21T14:06:12;0;0;
70249;PMS5003;57644;48.416;-123.374;2022-08-21T14:08:40;2;2;
70249;PMS5003;57644;48.416;-123.374;2022-08-21T14:11:11;0;0;
70249;PMS5003;57644;48.416;-123.374;2022-08-21T14:13:41;1;1;
70249;PMS5003;57644;48.416;-123.374;2022-08-21T14:16:13;2;2;
70249;PMS5003;57644;48.416;-123.374;2022-08-21T14:18:45;2;1;
70249;PMS5003;57644;48.416;-123.374;2022-08-21T14:21:12;1;1;
70249;PMS5003;57644;48.416;-123.374;2022-08-21T14:23:42;1;1;
70249;PMS5003;57644;48.416;-123.374;2022-08-21T14:26:12;2;2;
70249;PMS5003;57644;48.416;-123.374;2022-08-21T14:28:42;1;1;
70249;PMS5003;57644;48.416;-123.374;2022-08-21T14:31:14;2;2;
70249;PMS5003;57644;48.416;-123.374;2022-08-21T14:33:43;1;1;
70249;PMS5003;57644;48.416;-123.374;2022-08-21T14:36:15;2;2;
70249;PMS5003;57644;48.416;-123.374;2022-08-21T14:38:44;2;2;
70249;PMS5003;57644;48.416;-123.374;2022-08-21T14:41:15;3;3;
70249;PMS5003;57644;48.416;-123.374;2022-08-21T14:43:45;3;3;
70249;PMS5003;57644;48.416;-123.374;2022-08-21T14:46:16;2;2;
70249;PMS5003;57644;48.416;-123.374;2022-08-21T14:48:45;2;2;
70249;PMS5003;57644;48.416;-123.374;2022-08-21T14:51:16;4;4;
70249;PMS5003;57644;48.416;-123.374;2022-08-21T14:53:46;3;2;
70249;PMS5003;57644;48.416;-123.374;2022-08-21T14:56:16;2;2;
70249;PMS5003;57644;48.416;-123.374;2022-08-21T14:58:47;3;3;
70249;PMS5003;57644;48.416;-123.374;2022-08-21T15:01:17;2;2;
70249;PMS5003;57644;48.416;-123.374;2022-08-21T15:03:47;2;1;
70249;PMS5003;57644;48.416;-123.374;2022-08-21T15:06:17;3;3;
70249;PMS5003;57644;48.416;-123.374;2022-08-21T15:08:48;1;1;
70249;PMS5003;57644;48.416;-123.374;2022-08-21T15:11:19;2;1;
70249;PMS5003;57644;48.416;-123.374;2022-08-21T15:13:50;1;1;
70249;PMS5003;57644;48.416;-123.374;2022-08-21T15:16:19;1;1;
70249;PMS5003;57644;48.416;-123.374;2022-08-21T15:18:49;1;1;
70249;PMS5003;57644;48.416;-123.374;2022-08-21T15:21:19;2;2;
70249;PMS5003;57644;48.416;-123.374;2022-08-21T15:23:50;2;1;
70249;PMS5003;57644;48.416;-123.374;2022-08-21T15:26:20;1;1;
70249;PMS5003;57644;48.416;-123.374;2022-08-21T15:28:50;1;1;
70249;PMS5003;57644;48.416;-123.374;2022-08-21T15:31:21;1;1;
70249;PMS5003;57644;48.416;-123.374;2022-08-21T15:33:51;1;1;
70249;PMS5003;57644;48.416;-123.374;2022-08-21T15:36:21;3;2;
70249;PMS5003;57644;48.416;-123.374;2022-08-21T15:38:52;0;0;
70249;PMS5003;57644;48.416;-123.374;2022-08-21T15:41:22;2;1;
70249;PMS5003;57644;48.416;-123.374;2022-08-21T15:43:52;2;1;
70249;PMS5003;57644;48.416;-123.374;2022-08-21T15:46:22;1;0;
70249;PMS5003;57644;48.416;-123.374;2022-08-21T15:48:53;1;1;
70249;PMS5003;57644;48.416;-123.374;2022-08-21T15:51:24;1;1;
70249;PMS5003;57644;48.416;-123.374;2022-08-21T15:53:54;0;0;
70249;PMS5003;57644;48.416;-123.374;2022-08-21T15:56:25;0;0;
70249;PMS5003;57644;48.416;-123.374;2022-08-21T15:58:57;0;0;
70249;PMS5003;57644;48.416;-123.374;2022-08-21T16:01:24;0;0;
70249;PMS5003;57644;48.416;-123.374;2022-08-21T16:03:55;1;1;
70249;PMS5003;57644;48.416;-123.374;2022-08-21T16:06:25;0;0;
70249;PMS5003;57644;48.416;-123.374;2022-08-21T16:08:55;1;1;
70249;PMS5003;57644;48.416;-123.374;2022-08-21T16:11:26;1;1;
70249;PMS5003;57644;48.416;-123.374;2022-08-21T16:13:56;1;1;
70249;PMS5003;57644;48.416;-123.374;2022-08-21T16:16:26;1;1;
70249;PMS5003;57644;48.416;-123.374;2022-08-21T16:18:57;1;1;
70249;PMS5003;57644;48.416;-123.374;2022-08-21T16:21:27;1;1;
70249;PMS5003;57644;48.416;-123.374;2022-08-21T16:23:57;2;1;
70249;PMS5003;57644;48.416;-123.374;2022-08-21T16:26:27;1;1;
70249;PMS5003;57644;48.416;-123.374;2022-08-21T16:28:58;1;1;
70249;PMS5003;57644;48.416;-123.374;2022-08-21T16:31:28;1;0;
70249;PMS5003;57644;48.416;-123.374;2022-08-21T16:33:58;1;1;
70249;PMS5003;57644;48.416;-123.374;2022-08-21T16:36:28;0;0;
70249;PMS5003;57644;48.416;-123.374;2022-08-21T16:38:58;1;1;
70249;PMS5003;57644;48.416;-123.374;2022-08-21T16:41:30;1;1;
70249;PMS5003;57644;48.416;-123.374;2022-08-21T16:43:59;1;1;
70249;PMS5003;57644;48.416;-123.374;2022-08-21T16:46:30;0;0;